Impacts TAF Board
For situational awareness. Not to be used for flight planning purposes.
IDs:

KOAJ - Jacksonville/Ellis A, NC, US

Issued at 0537 UTC 22 Oct 2021
Updated at 0650 UTC 22 Oct 2021
Potential Impact None Slight Moderate High
Time0556Z 22/07Z 22/08Z 22/09Z 22/10Z 22/11Z 22/12Z 22/13Z 22/14Z 22/15Z 22/16Z 22/17Z 22/18Z 22/19Z>>
Type OBS PRVL PRVL PRVL PRVL PRVL PRVL PRVL PRVL PRVL PRVL PRVL PRVL PRVL
VIS 10 >6 >6 >6 >6 >6 >6 >6 >6 >6 >6 >6 >6 >6
CIG 100 -- -- -- -- -- -- -- 50 50 50 50 50 50
Cover BKN SCT SCT SCT SCT SCT SCT SCT BKN BKN BKN BKN BKN BKN
FltCat VFR VFR VFR VFR VFR VFR VFR VFR VFR VFR VFR VFR VFR VFR
WX -- -- -- -- -- -- -- -- -- -- -- -- -- --
WDir 210 210 210 210 210 210 210 210 220 220 220 220 220 220
WSpd 5 6 6 6 6 6 6 6 9 9 9 9 9 9
WGst -- -- -- -- -- -- -- -- 14 14 14 14 14 14
Raw TAF
KOAJ 220537Z 2206/2306 21006KT P6SM SCT080
  FM221400 22009G14KT P6SM BKN050
  FM222000 21008KT P6SM VCSH SCT050 AMD LTD TO CLD VIS AND WIND


Raw METAR
KOAJ 220556Z AUTO 21005KT 10SM BKN100 17/16 A3005 RMK AO2 SLP177 T01670156 10189 20156 56011
KOAJ 220456Z AUTO 21005KT 10SM CLR 17/15 A3005 RMK AO2 SLP179 T01670150 402560100
KOAJ 220356Z AUTO 20006KT 10SM FEW120 17/15 A3007 RMK AO2 SLP184 T01720150

METAR Board
Radar Display
Forecast Discussion
For situational awareness. Not to be used for flight planning purposes.